EFRO

Rovaniemi Airport

Rovaniemi, Finland
METAR EFRO 240150Z AUTO 11001KT CAVOK 06/M02 Q1029
Observed Flight Rules
May-24 @ 01:50 UTC (12 minutes ago) Visual Flight Rules
Wind Visibility Clouds
110° at 1 knots 10,000+ meters
  • Clear skies
Temperatures Readings
Current 6°C / 43°F
Dewpoint -2°C / 28°F
Humidity 57%
Altimeter 30.38" Hg
Pressure 1029 hPa
Elevation 201
METAR EFRO 240150Z AUTO 11001KT CAVOK 06/M02 Q1029
Observed Flight Rules
May-24 @ 01:50 UTC
(12 minutes ago)
VFR
Wind Visibility
110° at 1 knots 10,000+ meters
Clouds
  • Clear skies
Temperature Dewpoint
6°C / 43°F -2°C / 28°F
Humidity Altimeter Pressure
57% 30.38" Hg 1029 hPa